createdAt,value
2023-09-01T00:01:01.242Z,101137.16
2023-09-01T00:03:27.929Z,101133.69
2023-09-01T00:05:54.647Z,101132.84
2023-09-01T00:08:21.201Z,101127.56
2023-09-01T00:10:47.729Z,101131.16
2023-09-01T00:13:14.461Z,101124.94
2023-09-01T00:15:40.970Z,101131.19
2023-09-01T00:18:07.536Z,101128.56
2023-09-01T00:20:36.889Z,101127.72
2023-09-01T00:23:04.954Z,101129.50
2023-09-01T00:25:32.016Z,101126.91
2023-09-01T00:27:58.458Z,101118.88
2023-09-01T00:30:24.932Z,101128.56
2023-09-01T00:32:51.411Z,101136.53
2023-09-01T00:35:18.047Z,101138.28
2023-09-01T00:37:46.492Z,101146.19
2023-09-01T00:40:13.000Z,101151.56
2023-09-01T00:42:39.473Z,101143.53
2023-09-01T00:45:06.680Z,101149.72
2023-09-01T00:47:33.173Z,101148.94
2023-09-01T00:50:08.726Z,101146.34
2023-09-01T00:52:36.612Z,101147.22
2023-09-01T00:55:04.175Z,101158.69
2023-09-01T00:57:30.959Z,101159.59
2023-09-01T00:59:58.143Z,101148.09
2023-09-01T01:02:26.419Z,101142.72
2023-09-01T01:04:54.887Z,101144.56
2023-09-01T01:07:34.998Z,101151.59
2023-09-01T01:10:11.534Z,101145.38
2023-09-01T01:12:47.233Z,101138.31
2023-09-01T01:15:15.597Z,101138.38
2023-09-01T01:17:44.987Z,101141.09
2023-09-01T01:20:17.477Z,101141.97
2023-09-01T01:23:11.359Z,101137.56
2023-09-01T01:25:45.361Z,101140.31
2023-09-01T01:28:12.129Z,101136.84
2023-09-01T01:30:39.377Z,101129.91
2023-09-01T01:33:15.673Z,101131.59
2023-09-01T01:35:54.384Z,101131.59
2023-09-01T01:38:29.241Z,101131.59
2023-09-01T01:41:20.682Z,101137.81
2023-09-01T01:43:50.812Z,101138.84
2023-09-01T01:46:18.195Z,101140.72
2023-09-01T01:48:44.725Z,101143.41
2023-09-01T01:51:11.280Z,101140.75
2023-09-01T01:53:38.987Z,101143.47
2023-09-01T01:56:07.192Z,101145.25
2023-09-01T01:58:33.814Z,101145.25
2023-09-01T02:01:07.102Z,101131.09
2023-09-01T02:03:34.074Z,101136.38
2023-09-01T02:06:00.568Z,101139.03
2023-09-01T02:08:27.120Z,101135.53
2023-09-01T02:10:53.577Z,101136.41
2023-09-01T02:13:20.192Z,101143.47
2023-09-01T02:15:56.207Z,101142.66
2023-09-01T02:18:23.023Z,101148.91
2023-09-01T02:20:49.502Z,101146.34
2023-09-01T02:23:17.904Z,101144.59
2023-09-01T02:25:45.211Z,101134.03
2023-09-01T02:28:12.292Z,101130.50
2023-09-01T02:30:40.056Z,101129.59
2023-09-01T02:33:07.361Z,101121.69
2023-09-01T02:35:34.907Z,101126.94
2023-09-01T02:38:01.524Z,101140.19
2023-09-01T02:40:28.118Z,101133.13
2023-09-01T02:42:54.762Z,101126.06
2023-09-01T02:45:21.344Z,101125.16
2023-09-01T02:47:50.640Z,101129.59
2023-09-01T02:50:17.085Z,101130.53
2023-09-01T02:52:43.702Z,101134.94
2023-09-01T02:55:10.604Z,101141.97
2023-09-01T02:57:37.302Z,101138.41
2023-09-01T03:00:15.536Z,101140.19
2023-09-01T03:02:44.017Z,101135.81
2023-09-01T03:05:11.375Z,101129.63
2023-09-01T03:07:42.142Z,101123.38
2023-09-01T03:10:09.482Z,101116.34
2023-09-01T03:12:39.987Z,101112.81
2023-09-01T03:15:12.842Z,101123.47
2023-09-01T03:17:39.448Z,101123.47
2023-09-01T03:20:06.721Z,101117.31
2023-09-01T03:22:33.486Z,101111.16
2023-09-01T03:25:01.170Z,101114.63
2023-09-01T03:27:27.825Z,101120.81
2023-09-01T03:29:55.657Z,101126.94
2023-09-01T03:32:22.220Z,101130.47
2023-09-01T03:34:49.338Z,101125.13
2023-09-01T03:37:15.966Z,101120.66
2023-09-01T03:39:42.445Z,101125.91
2023-09-01T03:42:08.946Z,101121.47
2023-09-01T03:44:35.520Z,101119.63
2023-09-01T03:47:02.107Z,101125.84
2023-09-01T03:49:28.981Z,101116.06
2023-09-01T03:51:55.408Z,101118.72
2023-09-01T03:54:21.910Z,101109.84
2023-09-01T03:56:48.472Z,101116.06
2023-09-01T03:59:14.943Z,101111.63
2023-09-01T04:01:44.375Z,101105.41
2023-09-01T04:04:11.597Z,101092.22
2023-09-01T04:06:39.047Z,101108.00
2023-09-01T04:09:06.359Z,101099.19
2023-09-01T04:11:33.472Z,101107.09
2023-09-01T04:14:00.242Z,101104.44
2023-09-01T04:16:26.886Z,101108.88
2023-09-01T04:18:53.677Z,101105.41
2023-09-01T04:21:20.596Z,101108.00
2023-09-01T04:23:47.367Z,101108.88
2023-09-01T04:26:14.183Z,101105.38
2023-09-01T04:28:40.630Z,101106.28
2023-09-01T04:31:29.210Z,101112.44
2023-09-01T04:33:58.652Z,101116.00
2023-09-01T04:36:33.703Z,101112.44
2023-09-01T04:39:05.828Z,101107.16
2023-09-01T04:41:35.599Z,101108.06
2023-09-01T04:44:02.104Z,101108.06
2023-09-01T04:46:28.792Z,101111.63
2023-09-01T04:48:56.066Z,101108.97
2023-09-01T04:51:23.038Z,101105.47
2023-09-01T04:53:52.402Z,101102.84
2023-09-01T04:56:18.844Z,101115.25
2023-09-01T04:58:45.304Z,101122.38
2023-09-01T05:01:11.882Z,101124.16
2023-09-01T05:03:38.641Z,101125.94
2023-09-01T05:06:06.444Z,101136.56
2023-09-01T05:08:33.426Z,101126.81
2023-09-01T05:10:59.935Z,101135.63
2023-09-01T05:13:27.886Z,101135.63
2023-09-01T05:15:54.431Z,101140.03
2023-09-01T05:18:20.894Z,101141.81
2023-09-01T05:20:49.206Z,101140.91
2023-09-01T05:23:16.038Z,101132.91
2023-09-01T05:25:42.661Z,101136.47
2023-09-01T05:28:09.214Z,101140.00
2023-09-01T05:30:38.274Z,101140.91
2023-09-01T05:33:05.141Z,101133.03
2023-09-01T05:35:31.810Z,101129.56
2023-09-01T05:37:58.417Z,101128.69
2023-09-01T05:40:25.029Z,101135.72
2023-09-01T05:42:51.473Z,101127.72
2023-09-01T05:45:18.508Z,101130.38
2023-09-01T05:47:45.728Z,101137.44
2023-09-01T05:50:12.340Z,101133.91
2023-09-01T05:52:38.788Z,101118.88
2023-09-01T05:55:05.540Z,101116.16
2023-09-01T05:57:32.041Z,101122.34
2023-09-01T05:59:59.568Z,101114.38
2023-09-01T06:02:26.245Z,101116.97
2023-09-01T06:04:52.821Z,101118.72
2023-09-01T06:07:22.275Z,101121.31
2023-09-01T06:09:51.125Z,101124.81
2023-09-01T06:12:17.652Z,101131.00
2023-09-01T06:14:45.438Z,101135.41
2023-09-01T06:17:12.169Z,101132.69
2023-09-01T06:19:38.668Z,101139.72
2023-09-01T06:22:05.161Z,101145.88
2023-09-01T06:24:31.865Z,101144.06
2023-09-01T06:26:58.362Z,101149.34
2023-09-01T06:29:24.823Z,101152.88
2023-09-01T06:31:51.461Z,101150.25
2023-09-01T06:34:17.941Z,101149.34
2023-09-01T06:36:44.587Z,101152.84
2023-09-01T06:39:14.908Z,101157.25
2023-09-01T06:41:41.482Z,101152.78
2023-09-01T06:44:07.956Z,101155.44
2023-09-01T06:46:34.542Z,101155.38
2023-09-01T06:49:01.009Z,101151.00
2023-09-01T06:51:27.530Z,101158.94
2023-09-01T06:53:54.005Z,101162.44
2023-09-01T06:56:20.480Z,101159.78
2023-09-01T06:58:47.189Z,101159.72
2023-09-01T07:01:16.494Z,101157.94
2023-09-01T07:03:43.920Z,101154.38
2023-09-01T07:06:10.425Z,101155.19
2023-09-01T07:08:36.973Z,101154.31
2023-09-01T07:11:05.203Z,101151.66
2023-09-01T07:13:32.526Z,101148.09
2023-09-01T07:15:59.710Z,101148.94
2023-09-01T07:18:27.046Z,101144.50
2023-09-01T07:20:59.612Z,101143.59
2023-09-01T07:23:26.515Z,101145.31
2023-09-01T07:25:56.775Z,101140.88
2023-09-01T07:28:23.440Z,101142.66
2023-09-01T07:30:50.116Z,101140.88
2023-09-01T07:33:19.438Z,101144.41
2023-09-01T07:35:47.644Z,101139.91
2023-09-01T07:38:14.599Z,101141.63
2023-09-01T07:40:41.973Z,101133.63
2023-09-01T07:43:08.508Z,101138.06
2023-09-01T07:45:37.762Z,101134.53
2023-09-01T07:48:20.426Z,101132.72
2023-09-01T07:50:49.481Z,101135.34
2023-09-01T07:53:16.136Z,101139.69
2023-09-01T07:55:42.683Z,101137.88
2023-09-01T07:58:12.179Z,101136.00
2023-09-01T08:00:41.092Z,101139.53
2023-09-01T08:03:11.941Z,101130.78
2023-09-01T08:05:39.223Z,101146.59
2023-09-01T08:08:06.573Z,101150.09
2023-09-01T08:10:33.143Z,101152.66
2023-09-01T08:12:59.748Z,101154.34
2023-09-01T08:15:26.429Z,101154.28
2023-09-01T08:17:54.461Z,101152.47
2023-09-01T08:20:21.019Z,101160.38
2023-09-01T08:22:47.586Z,101158.59
2023-09-01T08:25:14.693Z,101152.41
2023-09-01T08:27:41.197Z,101160.38
2023-09-01T08:30:08.368Z,101162.19
2023-09-01T08:32:35.118Z,101156.06
2023-09-01T08:35:04.377Z,101154.25
2023-09-01T08:37:31.094Z,101159.56
2023-09-01T08:39:57.620Z,101155.06
2023-09-01T08:42:26.888Z,101155.94
2023-09-01T08:44:54.144Z,101157.72
2023-09-01T08:47:24.442Z,101155.13
2023-09-01T08:49:51.633Z,101159.50
2023-09-01T08:52:19.878Z,101158.53
2023-09-01T08:54:47.639Z,101157.59
2023-09-01T08:57:14.277Z,101158.41
2023-09-01T08:59:43.252Z,101153.94
2023-09-01T09:02:09.865Z,101149.44
2023-09-01T09:04:36.541Z,101146.75
2023-09-01T09:07:19.960Z,101150.25
2023-09-01T09:09:55.780Z,101155.59
2023-09-01T09:12:42.425Z,101163.66
2023-09-01T09:15:10.452Z,101166.38
2023-09-01T09:17:45.898Z,101176.88
2023-09-01T09:20:15.233Z,101175.09
2023-09-01T09:23:11.842Z,101175.06
2023-09-01T09:25:38.336Z,101182.16
2023-09-01T09:28:15.191Z,101189.19
2023-09-01T09:30:52.413Z,101182.06
2023-09-01T09:33:30.075Z,101190.00
2023-09-01T09:35:57.025Z,101190.03
2023-09-01T09:38:24.869Z,101195.28
2023-09-01T09:40:58.294Z,101202.34
2023-09-01T09:43:24.917Z,101204.97
2023-09-01T09:45:55.846Z,101208.53
2023-09-01T09:48:22.907Z,101213.91
2023-09-01T09:50:55.521Z,101215.72
2023-09-01T09:53:24.896Z,101220.13
2023-09-01T09:55:55.001Z,101213.84
2023-09-01T09:58:36.178Z,101209.38
2023-09-01T10:01:08.468Z,101215.56
2023-09-01T10:03:35.926Z,101219.94
2023-09-01T10:06:05.534Z,101214.63
2023-09-01T10:08:37.660Z,101218.16
2023-09-01T10:11:06.732Z,101207.53
2023-09-01T10:13:33.399Z,101204.00
2023-09-01T10:16:01.039Z,101207.53
2023-09-01T10:18:27.802Z,101204.00
2023-09-01T10:20:54.509Z,101198.56
2023-09-01T10:23:21.357Z,101216.25
2023-09-01T10:26:33.311Z,101207.16
2023-09-01T10:29:01.542Z,101205.25
2023-09-01T10:31:32.780Z,101203.38
2023-09-01T10:34:09.745Z,101221.06
2023-09-01T10:36:37.688Z,101213.78
2023-09-01T10:39:22.351Z,101217.91
2023-09-01T10:42:04.144Z,101218.59
2023-09-01T10:44:45.724Z,101218.53
2023-09-01T10:47:32.678Z,101221.19
2023-09-01T10:50:01.573Z,101215.81
2023-09-01T10:52:29.568Z,101214.88
2023-09-01T10:55:03.664Z,101208.66
2023-09-01T10:57:52.744Z,101198.81
2023-09-01T11:00:33.156Z,101213.66
2023-09-01T11:03:31.355Z,101210.78
2023-09-01T11:05:59.508Z,101222.13
2023-09-01T11:08:26.678Z,101220.19
2023-09-01T11:11:01.468Z,101215.72
2023-09-01T11:13:28.775Z,101228.88
2023-09-01T11:15:55.410Z,101235.06
2023-09-01T11:18:22.790Z,101224.41
2023-09-01T11:20:54.144Z,101238.63
2023-09-01T11:23:22.078Z,101233.44
2023-09-01T11:25:49.572Z,101222.84
2023-09-01T11:28:16.366Z,101237.88
2023-09-01T11:30:57.088Z,101235.22
2023-09-01T11:33:26.367Z,101237.91
2023-09-01T11:36:07.178Z,101238.78
2023-09-01T11:38:35.487Z,101234.19
2023-09-01T11:41:04.346Z,101240.25
2023-09-01T11:43:32.593Z,101243.75
2023-09-01T11:45:59.851Z,101242.72
2023-09-01T11:48:29.450Z,101239.88
2023-09-01T11:51:01.194Z,101239.63
2023-09-01T11:53:30.571Z,101242.97
2023-09-01T11:56:02.406Z,101247.28
2023-09-01T11:58:34.715Z,101254.41
2023-09-01T12:01:15.349Z,101259.69
2023-09-01T12:03:51.794Z,101267.78
2023-09-01T12:06:22.161Z,101266.09
2023-09-01T12:08:49.785Z,101268.00
2023-09-01T12:11:18.006Z,101270.84
2023-09-01T12:13:45.776Z,101264.72
2023-09-01T12:16:23.513Z,101263.97
2023-09-01T12:18:50.763Z,101274.66
2023-09-01T12:21:18.730Z,101275.50
2023-09-01T12:23:47.241Z,101273.94
2023-09-01T12:26:16.739Z,101271.22
2023-09-01T12:28:44.416Z,101277.47
2023-09-01T12:31:12.261Z,101272.97
2023-09-01T12:33:39.103Z,101277.28
2023-09-01T12:36:07.626Z,101281.56
2023-09-01T12:38:34.225Z,101282.22
2023-09-01T12:41:00.775Z,101281.97
2023-09-01T12:43:27.242Z,101291.47
2023-09-01T12:45:53.849Z,101294.75
2023-09-01T12:48:20.422Z,101292.00
2023-09-01T12:50:50.075Z,101291.09
2023-09-01T12:53:17.410Z,101298.16
2023-09-01T12:55:46.401Z,101293.63
2023-09-01T12:58:13.169Z,101301.47
2023-09-01T13:00:39.644Z,101297.81
2023-09-01T13:03:06.353Z,101295.16
2023-09-01T13:05:33.114Z,101302.22
2023-09-01T13:08:00.852Z,101291.75
2023-09-01T13:10:28.383Z,101298.72
2023-09-01T13:12:55.220Z,101307.66
2023-09-01T13:15:21.866Z,101298.72
2023-09-01T13:17:48.722Z,101301.38
2023-09-01T13:20:15.813Z,101306.72
2023-09-01T13:22:43.049Z,101296.13
2023-09-01T13:25:10.424Z,101313.00
2023-09-01T13:27:37.170Z,101311.34
2023-09-01T13:30:04.215Z,101317.66
2023-09-01T13:32:30.826Z,101312.31
2023-09-01T13:34:57.345Z,101308.75
2023-09-01T13:37:26.004Z,101305.16
2023-09-01T13:39:58.884Z,101312.19
2023-09-01T13:42:26.176Z,101317.56
2023-09-01T13:44:55.364Z,101327.38
2023-09-01T13:47:22.444Z,101316.59
2023-09-01T13:49:52.970Z,101318.34
2023-09-01T13:52:20.343Z,101319.38
2023-09-01T13:54:49.675Z,101326.56
2023-09-01T13:57:16.202Z,101329.22
2023-09-01T13:59:42.689Z,101340.72
2023-09-01T14:02:09.300Z,101334.34
2023-09-01T14:04:35.783Z,101335.22
2023-09-01T14:07:03.828Z,101329.94
2023-09-01T14:09:30.728Z,101340.72
2023-09-01T14:11:57.224Z,101341.56
2023-09-01T14:14:23.827Z,101338.91
2023-09-01T14:16:50.516Z,101340.63
2023-09-01T14:19:17.171Z,101332.53
2023-09-01T14:21:43.802Z,101338.66
2023-09-01T14:24:13.215Z,101340.34
2023-09-01T14:26:42.072Z,101330.34
2023-09-01T14:29:09.182Z,101333.81
2023-09-01T14:31:35.801Z,101330.94
2023-09-01T14:34:03.037Z,101322.81
2023-09-01T14:36:29.809Z,101317.16
2023-09-01T14:38:56.829Z,101313.34
2023-09-01T14:41:24.513Z,101312.22
2023-09-01T14:43:51.039Z,101306.63
2023-09-01T14:46:18.960Z,101303.59
2023-09-01T14:48:47.338Z,101311.28
2023-09-01T14:51:18.222Z,101316.31
2023-09-01T14:53:48.352Z,101318.78
2023-09-01T14:56:15.970Z,101316.13
2023-09-01T14:58:42.613Z,101320.59
2023-09-01T15:01:09.156Z,101322.31
2023-09-01T15:03:36.022Z,101323.91
2023-09-01T15:06:02.877Z,101325.69
2023-09-01T15:08:29.413Z,101327.63
2023-09-01T15:10:56.458Z,101324.88
2023-09-01T15:13:23.535Z,101327.53
2023-09-01T15:15:50.412Z,101323.91
2023-09-01T15:18:17.641Z,101330.06
2023-09-01T15:20:44.534Z,101332.69
2023-09-01T15:23:11.110Z,101329.19
2023-09-01T15:25:39.157Z,101332.91
2023-09-01T15:28:06.022Z,101330.28
2023-09-01T15:30:32.939Z,101309.09
2023-09-01T15:32:59.422Z,101319.50
2023-09-01T15:35:30.162Z,101321.34
2023-09-01T15:38:01.564Z,101316.97
2023-09-01T15:40:28.350Z,101326.75
2023-09-01T15:42:56.525Z,101318.75
2023-09-01T15:45:24.079Z,101324.00
2023-09-01T15:47:51.675Z,101329.34
2023-09-01T15:50:24.981Z,101332.00
2023-09-01T15:52:54.749Z,101341.03
2023-09-01T15:55:26.777Z,101342.06
2023-09-01T15:57:53.836Z,101336.00
2023-09-01T16:00:20.453Z,101335.22
2023-09-01T16:02:47.062Z,101342.41
2023-09-01T16:05:14.281Z,101332.66
2023-09-01T16:07:40.920Z,101338.09
2023-09-01T16:10:07.872Z,101330.19
2023-09-01T16:12:34.364Z,101330.22
2023-09-01T16:15:00.826Z,101326.69
2023-09-01T16:17:27.459Z,101333.94
2023-09-01T16:19:53.973Z,101324.22
2023-09-01T16:22:20.639Z,101331.41
2023-09-01T16:24:47.101Z,101329.53
2023-09-01T16:27:13.824Z,101330.41
2023-09-01T16:29:44.833Z,101330.34
2023-09-01T16:32:11.435Z,101325.94
2023-09-01T16:34:37.977Z,101334.88
2023-09-01T16:37:04.647Z,101333.97
2023-09-01T16:39:32.007Z,101341.09
2023-09-01T16:41:59.676Z,101336.66
2023-09-01T16:44:27.051Z,101336.75
2023-09-01T16:46:53.755Z,101335.88
2023-09-01T16:49:20.489Z,101342.13
2023-09-01T16:51:46.991Z,101345.88
2023-09-01T16:54:13.464Z,101343.38
2023-09-01T16:56:39.923Z,101349.59
2023-09-01T16:59:06.597Z,101355.00
2023-09-01T17:01:33.073Z,101348.94
2023-09-01T17:03:59.623Z,101359.69
2023-09-01T17:06:26.198Z,101357.13
2023-09-01T17:08:56.934Z,101360.84
2023-09-01T17:11:23.677Z,101360.13
2023-09-01T17:13:50.413Z,101366.41
2023-09-01T17:16:18.584Z,101371.81
2023-09-01T17:18:46.736Z,101366.50
2023-09-01T17:21:13.416Z,101364.78
2023-09-01T17:23:40.165Z,101363.94
2023-09-01T17:26:06.800Z,101367.63
2023-09-01T17:28:33.491Z,101372.09
2023-09-01T17:31:00.055Z,101377.53
2023-09-01T17:33:26.752Z,101380.38
2023-09-01T17:35:53.343Z,101380.50
2023-09-01T17:38:19.857Z,101380.53
2023-09-01T17:40:46.571Z,101377.91
2023-09-01T17:43:13.156Z,101376.25
2023-09-01T17:45:39.802Z,101380.78
2023-09-01T17:48:07.208Z,101388.88
2023-09-01T17:50:33.942Z,101384.47
2023-09-01T17:53:00.693Z,101388.03
2023-09-01T17:55:27.280Z,101393.44
2023-09-01T17:57:53.952Z,101395.34
2023-09-01T18:00:20.621Z,101399.97
2023-09-01T18:02:47.270Z,101395.50
2023-09-01T18:05:13.869Z,101406.16
2023-09-01T18:07:40.349Z,101413.31
2023-09-01T18:10:07.517Z,101410.78
2023-09-01T18:12:34.104Z,101420.50
2023-09-01T18:15:00.664Z,101417.94
2023-09-01T18:17:27.241Z,101416.22
2023-09-01T18:19:55.891Z,101430.50
2023-09-01T18:22:22.368Z,101429.72
2023-09-01T18:24:50.951Z,101433.38
2023-09-01T18:27:30.430Z,101440.59
2023-09-01T18:29:57.811Z,101437.94
2023-09-01T18:32:28.513Z,101436.28
2023-09-01T18:34:55.490Z,101434.69
2023-09-01T18:37:22.171Z,101437.34
2023-09-01T18:39:50.266Z,101448.97
2023-09-01T18:42:40.073Z,101452.50
2023-09-01T18:45:11.868Z,101451.72
2023-09-01T18:47:38.884Z,101456.19
2023-09-01T18:50:06.070Z,101459.78
2023-09-01T18:52:34.487Z,101458.91
2023-09-01T18:55:01.065Z,101459.91
2023-09-01T18:57:27.573Z,101463.50
2023-09-01T19:00:04.230Z,101470.66
2023-09-01T19:02:42.486Z,101472.50
2023-09-01T19:05:21.258Z,101483.19
2023-09-01T19:07:47.728Z,101489.47
2023-09-01T19:10:21.630Z,101496.59
2023-09-01T19:12:52.519Z,101497.47
2023-09-01T19:15:20.828Z,101498.38
2023-09-01T19:17:48.844Z,101503.78
2023-09-01T19:20:33.900Z,101503.81
2023-09-01T19:23:21.291Z,101501.19
2023-09-01T19:25:47.982Z,101512.72
2023-09-01T19:28:35.346Z,101512.81
2023-09-01T19:31:07.019Z,101510.16
2023-09-01T19:33:35.965Z,101516.41
2023-09-01T19:36:02.634Z,101515.56
2023-09-01T19:38:30.653Z,101523.59
2023-09-01T19:40:59.583Z,101524.53
2023-09-01T19:43:26.334Z,101524.53
2023-09-01T19:45:54.381Z,101534.25
2023-09-01T19:48:22.356Z,101525.41
2023-09-01T19:50:49.060Z,101515.78
2023-09-01T19:53:29.719Z,101529.84
2023-09-01T19:56:15.948Z,101536.09
2023-09-01T19:58:47.566Z,101533.44
2023-09-01T20:01:17.596Z,101536.09
2023-09-01T20:03:44.564Z,101532.59
2023-09-01T20:06:13.204Z,101543.22
2023-09-01T20:08:39.762Z,101537.06
2023-09-01T20:11:08.137Z,101543.22
2023-09-01T20:13:37.180Z,101536.09
2023-09-01T20:16:04.224Z,101546.81
2023-09-01T20:18:31.089Z,101544.25
2023-09-01T20:20:57.699Z,101555.72
2023-09-01T20:23:24.228Z,101556.66
2023-09-01T20:25:53.141Z,101557.56
2023-09-01T20:28:19.639Z,101564.66
2023-09-01T20:30:46.133Z,101556.66
2023-09-01T20:33:12.869Z,101559.31
2023-09-01T20:35:39.298Z,101556.75
2023-09-01T20:38:05.862Z,101567.31
2023-09-01T20:40:32.419Z,101569.09
2023-09-01T20:42:58.943Z,101563.81
2023-09-01T20:45:25.480Z,101548.94
2023-09-01T20:47:52.017Z,101562.16
2023-09-01T20:50:18.586Z,101573.72
2023-09-01T20:52:45.098Z,101567.53
2023-09-01T20:55:11.616Z,101577.28
2023-09-01T20:57:43.031Z,101575.50
2023-09-01T21:00:13.803Z,101592.34
2023-09-01T21:02:42.568Z,101603.84
2023-09-01T21:05:09.284Z,101608.31
2023-09-01T21:07:37.406Z,101607.44
2023-09-01T21:10:05.609Z,101611.81
2023-09-01T21:12:32.459Z,101615.44
2023-09-01T21:14:59.365Z,101611.06
2023-09-01T21:17:27.369Z,101615.56
2023-09-01T21:19:58.686Z,101612.88
2023-09-01T21:22:26.758Z,101612.91
2023-09-01T21:24:53.853Z,101610.16
2023-09-01T21:27:20.416Z,101600.44
2023-09-01T21:29:51.663Z,101608.41
2023-09-01T21:32:21.694Z,101611.13
2023-09-01T21:34:49.035Z,101612.91
2023-09-01T21:37:15.554Z,101605.00
2023-09-01T21:39:42.152Z,101611.22
2023-09-01T21:42:08.620Z,101612.09
2023-09-01T21:44:35.044Z,101613.88
2023-09-01T21:47:01.505Z,101616.56
2023-09-01T21:49:27.927Z,101616.53
2023-09-01T21:51:54.328Z,101608.56
2023-09-01T21:54:20.810Z,101606.81
2023-09-01T21:56:47.285Z,101604.16
2023-09-01T21:59:13.940Z,101616.59
2023-09-01T22:01:40.726Z,101611.31
2023-09-01T22:04:07.885Z,101619.31
2023-09-01T22:06:34.380Z,101613.13
2023-09-01T22:09:00.884Z,101605.19
2023-09-01T22:11:27.397Z,101606.06
2023-09-01T22:13:54.624Z,101609.59
2023-09-01T22:16:22.609Z,101605.19
2023-09-01T22:18:49.046Z,101621.16
2023-09-01T22:21:16.183Z,101615.84
2023-09-01T22:23:42.618Z,101623.81
2023-09-01T22:26:09.700Z,101617.66
2023-09-01T22:28:36.248Z,101618.56
2023-09-01T22:31:02.806Z,101617.69
2023-09-01T22:33:29.326Z,101623.03
2023-09-01T22:35:55.845Z,101623.03
2023-09-01T22:38:22.373Z,101625.69
2023-09-01T22:40:49.525Z,101623.03
2023-09-01T22:43:19.752Z,101618.63
2023-09-01T22:45:46.752Z,101616.00
2023-09-01T22:48:13.268Z,101622.25
2023-09-01T22:50:39.767Z,101617.78
2023-09-01T22:53:06.265Z,101631.09
2023-09-01T22:55:33.600Z,101632.00
2023-09-01T22:58:00.267Z,101635.53
2023-09-01T23:00:27.325Z,101637.31
2023-09-01T23:02:53.979Z,101637.31
2023-09-01T23:05:20.498Z,101636.44
2023-09-01T23:07:47.092Z,101638.25
2023-09-01T23:10:13.543Z,101636.44
2023-09-01T23:12:40.044Z,101639.97
2023-09-01T23:15:07.120Z,101633.78
2023-09-01T23:17:33.761Z,101638.19
2023-09-01T23:20:00.238Z,101641.78
2023-09-01T23:22:27.579Z,101636.53
2023-09-01T23:24:54.201Z,101646.25
2023-09-01T23:27:20.765Z,101652.44
2023-09-01T23:29:47.228Z,101656.00
2023-09-01T23:32:13.764Z,101648.91
2023-09-01T23:34:40.846Z,101657.78
2023-09-01T23:37:07.534Z,101656.91
2023-09-01T23:39:34.412Z,101658.66
2023-09-01T23:42:00.988Z,101657.72
2023-09-01T23:44:27.620Z,101658.66
2023-09-01T23:46:54.108Z,101666.63
2023-09-01T23:49:20.560Z,101660.44
2023-09-01T23:51:47.105Z,101663.09
2023-09-01T23:54:16.630Z,101656.00
2023-09-01T23:56:43.987Z,101662.22
2023-09-01T23:59:11.293Z,101661.38
